Time;durP1;ratioP1;P1;durP2;ratioP2;P2;SDS_P1;SDS_P2;PMS_P1;PMS_P2;Temp;Humidity;BMP_temperature;BMP_pressure;BME280_temperature;BME280_humidity;BME280_pressure;Samples;Min_cycle;Max_cycle;Signal;HPM_P1;HPM_P2
2022/10/10 00:01:24;;;;;;;16.00;6.15;;;11.70;99.90;;;;;;5073040;28;20020;-66
2022/10/10 00:03:50;;;;;;;11.63;5.70;;;11.70;99.90;;;;;;5072539;28;20047;-67
2022/10/10 00:06:16;;;;;;;18.38;6.85;;;11.70;99.90;;;;;;5072598;28;20020;-66
2022/10/10 00:08:43;;;;;;;9.73;5.88;;;11.60;99.90;;;;;;5072393;28;20070;-70
2022/10/10 00:11:11;;;;;;;12.65;7.32;;;11.50;99.90;;;;;;5072801;28;20107;-69
2022/10/10 00:13:37;;;;;;;21.95;8.05;;;11.60;99.90;;;;;;5072613;28;20198;-70
2022/10/10 00:16:03;;;;;;;19.48;8.10;;;11.50;99.90;;;;;;5054853;28;20500;-66
2022/10/10 00:18:29;;;;;;;15.70;7.82;;;11.40;99.90;;;;;;5072691;28;20132;-66
2022/10/10 00:20:55;;;;;;;18.98;8.70;;;11.30;99.90;;;;;;5072114;28;20525;-66
2022/10/10 00:23:21;;;;;;;19.75;7.60;;;11.40;99.90;;;;;;5072454;28;20019;-67
2022/10/10 00:25:47;;;;;;;13.55;7.30;;;11.50;99.90;;;;;;5072359;28;20025;-67
2022/10/10 00:28:13;;;;;;;16.17;7.63;;;11.40;99.90;;;;;;5072385;28;20044;-66
2022/10/10 00:30:39;;;;;;;11.50;6.05;;;11.50;99.90;;;;;;5054338;28;20550;-68
2022/10/10 00:33:05;;;;;;;14.15;5.93;;;11.30;99.90;;;;;;5072378;28;20107;-66
2022/10/10 00:35:31;;;;;;;16.63;6.20;;;11.20;99.90;;;;;;5071925;28;20115;-66
2022/10/10 00:37:56;;;;;;;9.75;5.20;;;11.10;99.90;;;;;;5072185;28;20392;-66
2022/10/10 00:40:23;;;;;;;10.55;5.55;;;11.10;99.90;;;;;;5073640;28;20082;-66
2022/10/10 00:42:49;;;;;;;10.63;5.28;;;11.00;99.90;;;;;;5076216;28;20048;-66
2022/10/10 00:45:25;;;;;;;14.40;6.25;;;11.20;99.90;;;;;;5075991;28;20472;-66
2022/10/10 00:47:57;;;;;;;13.75;5.57;;;11.20;99.90;;;;;;5075846;28;20419;-66
2022/10/10 00:50:24;;;;;;;13.20;5.72;;;11.00;99.90;;;;;;5075749;28;20086;-66
2022/10/10 00:52:50;;;;;;;14.98;6.40;;;11.00;99.90;;;;;;5076179;28;20028;-66
2022/10/10 00:55:16;;;;;;;13.57;5.15;;;11.30;99.90;;;;;;5075742;28;20044;-66
2022/10/10 00:57:42;;;;;;;13.70;5.57;;;11.20;99.90;;;;;;5074151;28;20497;-66
2022/10/10 01:00:09;;;;;;;11.15;6.05;;;11.10;99.90;;;;;;5075772;28;20052;-66
2022/10/10 01:02:34;;;;;;;12.43;5.60;;;10.80;99.90;;;;;;5075437;28;20036;-66
2022/10/10 01:05:00;;;;;;;13.73;6.07;;;10.90;99.90;;;;;;5075475;28;20635;-66
2022/10/10 01:07:30;;;;;;;12.23;5.75;;;11.10;99.90;;;;;;5075976;28;20063;-66
2022/10/10 01:10:07;;;;;;;13.43;5.10;;;11.10;99.90;;;;;;5057921;28;20032;-66
2022/10/10 01:12:50;;;;;;;14.55;6.15;;;11.20;99.90;;;;;;5075816;28;20028;-66
2022/10/10 01:15:38;;;;;;;10.75;5.97;;;11.30;99.90;;;;;;5075206;28;20036;-66
2022/10/10 01:18:23;;;;;;;10.40;5.68;;;11.30;99.90;;;;;;5057342;28;20107;-66
2022/10/10 01:21:03;;;;;;;13.68;5.90;;;11.30;99.90;;;;;;5075218;28;20512;-67
2022/10/10 01:23:54;;;;;;;8.20;5.13;;;11.40;99.90;;;;;;5075536;28;20063;-66
2022/10/10 01:26:54;;;;;;;11.15;5.65;;;11.40;99.90;;;;;;5068371;28;20062;-67
2022/10/10 01:29:36;;;;;;;19.60;5.45;;;11.40;99.90;;;;;;5075300;28;20384;-66
2022/10/10 01:32:17;;;;;;;12.05;5.78;;;11.30;99.90;;;;;;5074764;28;20108;-66
2022/10/10 01:35:13;;;;;;;13.73;5.55;;;11.00;99.90;;;;;;5061694;28;20028;-66
2022/10/10 01:38:31;;;;;;;11.93;5.18;;;11.00;99.90;;;;;;5068228;28;20041;-66
2022/10/10 01:41:03;;;;;;;12.63;5.90;;;11.00;99.90;;;;;;5055794;28;20435;-66
2022/10/10 01:43:30;;;;;;;10.38;5.40;;;11.10;99.90;;;;;;5075221;28;20547;-66
2022/10/10 01:45:55;;;;;;;14.23;7.10;;;10.90;99.90;;;;;;5074572;28;20053;-66
2022/10/10 01:48:27;;;;;;;11.63;6.22;;;10.90;99.90;;;;;;5057114;28;20059;-66
2022/10/10 01:51:14;;;;;;;10.55;5.82;;;10.90;99.90;;;;;;5074453;28;20047;-66
2022/10/10 01:54:03;;;;;;;12.20;6.30;;;10.90;99.90;;;;;;5062813;28;20558;-66
2022/10/10 01:57:06;;;;;;;16.20;6.10;;;10.90;99.90;;;;;;5074921;28;20032;-67
2022/10/10 02:00:01;;;;;;;14.18;6.22;;;10.90;99.90;;;;;;5074703;28;20041;-66
2022/10/10 02:02:35;;;;;;;15.45;6.25;;;10.90;99.90;;;;;;5074165;28;20031;-66
2022/10/10 02:05:35;;;;;;;12.82;5.70;;;10.90;99.90;;;;;;5074537;28;20021;-66
2022/10/10 02:08:18;;;;;;;18.35;5.68;;;11.00;99.90;;;;;;5074640;28;20028;-66
2022/10/10 02:10:57;;;;;;;14.50;6.22;;;10.80;99.90;;;;;;5074647;28;20032;-67
2022/10/10 02:13:29;;;;;;;15.63;6.35;;;10.70;99.90;;;;;;5074448;28;20041;-66
2022/10/10 02:15:58;;;;;;;14.30;6.00;;;10.40;99.90;;;;;;5073942;28;20437;-66
2022/10/10 02:18:28;;;;;;;15.45;5.85;;;10.30;99.90;;;;;;5074158;28;20429;-66
2022/10/10 02:20:54;;;;;;;17.20;6.20;;;10.40;99.90;;;;;;5074406;28;20043;-66
2022/10/10 02:23:21;;;;;;;15.40;6.10;;;10.50;99.90;;;;;;5074367;28;20358;-66
2022/10/10 02:25:51;;;;;;;13.55;6.20;;;10.70;99.90;;;;;;5073821;28;20476;-69
2022/10/10 02:28:28;;;;;;;21.98;6.80;;;10.90;99.90;;;;;;5056240;28;20032;-67
2022/10/10 02:30:59;;;;;;;14.10;5.88;;;11.00;99.90;;;;;;5073702;28;20054;-69
2022/10/10 02:33:39;;;;;;;13.07;5.93;;;10.90;99.90;;;;;;5074057;28;20048;-68
2022/10/10 02:36:06;;;;;;;12.90;6.18;;;11.00;99.90;;;;;;5074102;28;20286;-67
2022/10/10 02:38:31;;;;;;;17.15;6.30;;;10.90;99.90;;;;;;5055984;28;20025;-68
2022/10/10 02:41:03;;;;;;;10.63;5.88;;;11.00;99.90;;;;;;5073786;28;20082;-68
2022/10/10 02:43:31;;;;;;;15.15;6.30;;;11.00;99.90;;;;;;5056174;28;20067;-70
2022/10/10 02:46:01;;;;;;;10.85;5.50;;;11.00;99.90;;;;;;5073654;28;20473;-71
2022/10/10 02:48:26;;;;;;;13.43;6.20;;;11.00;99.90;;;;;;5074143;28;20036;-66
2022/10/10 02:50:52;;;;;;;21.50;6.28;;;11.00;99.90;;;;;;5073795;28;20492;-66
2022/10/10 02:53:18;;;;;;;17.42;6.22;;;11.10;99.90;;;;;;5073491;28;20028;-67
2022/10/10 02:55:44;;;;;;;9.38;6.20;;;11.00;99.90;;;;;;5073558;28;20063;-66
2022/10/10 02:58:10;;;;;;;15.60;6.13;;;11.00;99.90;;;;;;5073447;28;20111;-66
2022/10/10 03:00:35;;;;;;;12.95;6.35;;;11.00;99.90;;;;;;5073419;28;20102;-66
2022/10/10 03:03:01;;;;;;;16.00;6.40;;;11.00;99.90;;;;;;5073017;28;20500;-66
2022/10/10 03:05:27;;;;;;;14.55;6.80;;;10.80;99.90;;;;;;5073477;28;20500;-66
2022/10/10 03:07:52;;;;;;;13.85;6.50;;;10.80;99.90;;;;;;5073184;28;20561;-66
2022/10/10 03:10:18;;;;;;;15.25;6.45;;;10.80;99.90;;;;;;5073425;28;20097;-66
2022/10/10 03:12:44;;;;;;;13.13;5.63;;;10.80;99.90;;;;;;5073211;28;20020;-66
2022/10/10 03:15:10;;;;;;;15.25;5.85;;;10.80;99.90;;;;;;5072960;28;20072;-66
2022/10/10 03:17:35;;;;;;;14.05;6.25;;;10.80;99.90;;;;;;5073275;28;20017;-66
2022/10/10 03:20:02;;;;;;;13.13;6.20;;;10.80;99.90;;;;;;5073042;28;20435;-66
2022/10/10 03:22:28;;;;;;;14.20;6.05;;;10.60;99.90;;;;;;5072907;28;20024;-66
2022/10/10 03:24:54;;;;;;;20.45;6.82;;;10.70;99.90;;;;;;5072916;28;20477;-67
2022/10/10 03:27:20;;;;;;;16.80;5.78;;;10.80;99.90;;;;;;5072545;28;20115;-66
2022/10/10 03:29:45;;;;;;;14.18;6.43;;;10.60;99.90;;;;;;5072942;28;20021;-66
2022/10/10 03:32:11;;;;;;;14.23;6.47;;;10.60;99.90;;;;;;5072803;28;20024;-66
2022/10/10 03:34:37;;;;;;;13.20;6.03;;;10.60;99.90;;;;;;5072711;28;20494;-67
2022/10/10 03:37:02;;;;;;;14.25;6.38;;;10.50;99.90;;;;;;5054896;28;20039;-66
2022/10/10 03:39:28;;;;;;;10.27;6.45;;;10.50;99.90;;;;;;5072741;28;20048;-67
2022/10/10 03:41:54;;;;;;;11.45;6.18;;;10.50;99.90;;;;;;5054543;28;20419;-67
2022/10/10 03:44:20;;;;;;;13.95;6.63;;;10.50;99.90;;;;;;5072530;28;20032;-67
2022/10/10 03:46:45;;;;;;;11.95;5.90;;;10.50;99.90;;;;;;5054941;28;20048;-66
2022/10/10 03:49:11;;;;;;;16.70;6.55;;;10.60;99.90;;;;;;5072507;28;20028;-67
2022/10/10 03:51:37;;;;;;;14.50;6.30;;;10.50;99.90;;;;;;5072798;28;20084;-67
2022/10/10 03:54:03;;;;;;;13.82;6.20;;;10.50;99.90;;;;;;5072416;28;20488;-66
2022/10/10 03:56:29;;;;;;;11.02;5.47;;;10.70;99.90;;;;;;5072261;28;20024;-66
2022/10/10 03:58:56;;;;;;;13.15;6.10;;;10.50;99.90;;;;;;5072679;28;20036;-66
2022/10/10 04:01:22;;;;;;;12.65;6.20;;;10.60;99.90;;;;;;5072789;28;20380;-66
2022/10/10 04:03:48;;;;;;;16.98;6.90;;;10.70;99.90;;;;;;5072529;28;20021;-66
2022/10/10 04:06:13;;;;;;;14.90;6.43;;;10.60;99.90;;;;;;5072499;28;20032;-66
2022/10/10 04:08:39;;;;;;;13.15;5.43;;;10.60;99.90;;;;;;5072542;28;20098;-67
2022/10/10 04:11:05;;;;;;;13.70;6.00;;;10.50;99.90;;;;;;5072480;28;20496;-66
2022/10/10 04:13:31;;;;;;;10.48;5.95;;;10.60;99.90;;;;;;5072320;28;20039;-66
2022/10/10 04:15:56;;;;;;;15.52;6.25;;;10.60;99.90;;;;;;5075149;28;20121;-67
2022/10/10 04:18:23;;;;;;;10.90;5.70;;;10.50;99.90;;;;;;5076598;28;20027;-66
2022/10/10 04:20:49;;;;;;;8.25;5.00;;;10.50;99.90;;;;;;5076584;28;20070;-66
2022/10/10 04:23:15;;;;;;;16.23;6.07;;;10.30;99.90;;;;;;5076871;28;20094;-66
2022/10/10 04:25:42;;;;;;;13.57;5.18;;;10.30;99.90;;;;;;5076029;28;20484;-66
2022/10/10 04:28:11;;;;;;;10.80;5.53;;;10.30;99.90;;;;;;5076377;28;20036;-66
2022/10/10 04:30:37;;;;;;;9.98;5.60;;;10.40;99.90;;;;;;5076284;28;20028;-66
2022/10/10 04:33:03;;;;;;;14.20;5.55;;;10.30;99.90;;;;;;5076380;28;20453;-67
2022/10/10 04:35:28;;;;;;;12.95;5.47;;;10.30;99.90;;;;;;5076110;28;20039;-66
2022/10/10 04:37:54;;;;;;;15.60;5.32;;;10.30;99.90;;;;;;5076451;28;20024;-66
2022/10/10 04:40:20;;;;;;;11.70;5.25;;;10.30;99.90;;;;;;5075943;28;20028;-66
2022/10/10 04:42:46;;;;;;;12.50;5.57;;;10.40;99.90;;;;;;5076068;28;20381;-66
2022/10/10 04:45:11;;;;;;;19.15;5.90;;;10.60;99.90;;;;;;5076265;28;20445;-66
2022/10/10 04:47:37;;;;;;;12.55;5.35;;;10.50;99.90;;;;;;5075964;28;20539;-67
2022/10/10 04:50:03;;;;;;;11.18;5.15;;;10.30;99.90;;;;;;5076021;28;20060;-66
2022/10/10 04:52:29;;;;;;;11.90;5.78;;;10.40;99.90;;;;;;5075894;28;20024;-66
2022/10/10 04:54:55;;;;;;;14.65;5.20;;;10.20;99.90;;;;;;5075407;28;20710;-67
2022/10/10 04:57:21;;;;;;;14.38;5.05;;;10.30;99.90;;;;;;5075976;28;20032;-66
2022/10/10 04:59:46;;;;;;;12.85;5.43;;;10.30;99.90;;;;;;5075707;28;20021;-67
2022/10/10 05:02:12;;;;;;;9.82;4.75;;;10.40;99.90;;;;;;5075802;28;20385;-67
2022/10/10 05:04:38;;;;;;;17.77;5.25;;;10.40;99.90;;;;;;5075567;28;20019;-67
2022/10/10 05:07:03;;;;;;;9.88;5.43;;;10.40;99.90;;;;;;5075677;28;20111;-68
2022/10/10 05:09:32;;;;;;;13.07;5.57;;;10.20;99.90;;;;;;5075633;28;20021;-71
2022/10/10 05:11:59;;;;;;;17.90;5.65;;;10.30;99.90;;;;;;5057708;28;20024;-71
2022/10/10 05:14:25;;;;;;;17.17;5.63;;;10.50;99.90;;;;;;5075602;28;20125;-70
2022/10/10 05:16:51;;;;;;;14.05;5.43;;;10.30;99.90;;;;;;5075360;28;20035;-70
2022/10/10 05:19:17;;;;;;;18.30;6.80;;;10.40;99.90;;;;;;5075535;28;20029;-69
2022/10/10 05:21:42;;;;;;;20.80;5.95;;;10.60;99.90;;;;;;5075434;28;20107;-71
2022/10/10 05:24:08;;;;;;;18.65;5.60;;;10.50;99.90;;;;;;5075149;28;20082;-71
2022/10/10 05:26:34;;;;;;;13.93;5.90;;;10.60;99.90;;;;;;5074878;28;20024;-70
2022/10/10 05:29:00;;;;;;;20.75;6.43;;;10.70;99.90;;;;;;5075190;28;20060;-69
2022/10/10 05:31:27;;;;;;;16.15;6.00;;;10.60;99.90;;;;;;5057438;28;20039;-69
2022/10/10 05:33:53;;;;;;;22.95;5.78;;;10.60;99.90;;;;;;5075641;28;20082;-68
2022/10/10 05:36:19;;;;;;;13.43;5.35;;;10.60;99.90;;;;;;5077430;28;20488;-67
2022/10/10 05:38:44;;;;;;;16.52;6.15;;;10.50;99.90;;;;;;5075455;28;20477;-67
2022/10/10 05:41:11;;;;;;;12.43;5.63;;;10.40;99.90;;;;;;5075106;28;20465;-68
2022/10/10 05:43:37;;;;;;;18.15;6.05;;;10.40;99.90;;;;;;5075266;28;20024;-68
2022/10/10 05:46:03;;;;;;;21.15;5.63;;;10.60;99.90;;;;;;5074478;28;20457;-69
2022/10/10 05:48:29;;;;;;;12.88;5.90;;;10.70;99.90;;;;;;5074663;28;20124;-67
2022/10/10 05:50:57;;;;;;;15.80;6.68;;;10.60;99.90;;;;;;5074516;28;20032;-67
2022/10/10 05:53:23;;;;;;;20.00;8.10;;;10.60;99.90;;;;;;5074260;28;20099;-67
2022/10/10 05:55:49;;;;;;;19.10;6.93;;;10.60;99.90;;;;;;5056676;28;20037;-67
2022/10/10 05:58:15;;;;;;;20.52;5.95;;;10.60;99.90;;;;;;5074759;28;20041;-66
2022/10/10 06:00:42;;;;;;;20.10;5.38;;;10.60;99.90;;;;;;5074550;28;20100;-68
2022/10/10 06:03:12;;;;;;;18.30;7.05;;;10.40;99.90;;;;;;5074450;28;20028;-69
2022/10/10 06:05:39;;;;;;;22.15;6.28;;;10.30;99.90;;;;;;5056681;28;20115;-66
2022/10/10 06:08:05;;;;;;;19.25;6.53;;;10.50;99.90;;;;;;5074116;28;20372;-66
2022/10/10 06:10:43;;;;;;;13.00;6.68;;;10.40;99.90;;;;;;5074583;28;20021;-67
2022/10/10 06:13:10;;;;;;;21.92;6.22;;;10.40;99.90;;;;;;5074292;28;20051;-66
2022/10/10 06:15:36;;;;;;;18.42;6.68;;;10.50;99.90;;;;;;5074270;28;20480;-66
2022/10/10 06:18:02;;;;;;;19.52;7.03;;;10.50;99.90;;;;;;5074259;28;20025;-69
2022/10/10 06:20:27;;;;;;;21.58;6.53;;;10.80;99.90;;;;;;5068781;28;20031;-67
2022/10/10 06:22:53;;;;;;;25.88;7.28;;;11.00;99.90;;;;;;5072177;28;20025;-67
2022/10/10 06:25:19;;;;;;;18.02;7.07;;;11.20;99.90;;;;;;5073056;28;20075;-67
2022/10/10 06:27:45;;;;;;;25.73;7.40;;;10.90;99.90;;;;;;5072870;28;20036;-67
2022/10/10 06:30:11;;;;;;;17.52;6.45;;;10.90;99.90;;;;;;5073053;28;20040;-69
2022/10/10 06:32:37;;;;;;;20.35;7.85;;;11.00;99.90;;;;;;5072630;28;20392;-66
2022/10/10 06:35:03;;;;;;;26.73;7.00;;;11.10;99.90;;;;;;5073082;28;20040;-66
2022/10/10 06:37:29;;;;;;;21.88;7.03;;;11.20;99.90;;;;;;5068549;28;20065;-70
2022/10/10 06:39:55;;;;;;;20.85;6.78;;;11.00;99.90;;;;;;5067523;28;20020;-67
2022/10/10 06:42:21;;;;;;;19.27;7.18;;;11.00;99.90;;;;;;5072801;28;20035;-69
2022/10/10 06:44:55;;;;;;;17.50;6.50;;;11.00;99.90;;;;;;5052367;28;20677;-71
2022/10/10 06:47:21;;;;;;;18.88;6.13;;;11.00;99.90;;;;;;5049921;28;20162;-66
2022/10/10 06:49:47;;;;;;;15.57;6.22;;;10.80;99.90;;;;;;5071861;28;20042;-66
2022/10/10 06:52:13;;;;;;;15.50;6.38;;;11.10;99.90;;;;;;5072446;28;20389;-68
2022/10/10 06:54:39;;;;;;;21.02;6.55;;;11.10;99.90;;;;;;5072525;28;20041;-67
2022/10/10 06:57:05;;;;;;;16.45;5.82;;;11.40;99.90;;;;;;5072371;28;20036;-68
2022/10/10 06:59:31;;;;;;;20.35;6.53;;;11.30;99.90;;;;;;5072389;28;20100;-67
2022/10/10 07:01:56;;;;;;;13.70;5.80;;;11.30;99.90;;;;;;5072747;28;20111;-68
2022/10/10 07:04:22;;;;;;;16.10;7.07;;;11.20;99.90;;;;;;5072279;28;20028;-68
2022/10/10 07:06:48;;;;;;;16.88;5.93;;;11.30;99.90;;;;;;5071678;28;20017;-68
2022/10/10 07:09:14;;;;;;;12.38;5.55;;;11.40;99.90;;;;;;5079493;28;20469;-69
2022/10/10 07:11:44;;;;;;;17.77;6.07;;;11.40;99.90;;;;;;5047369;28;20036;-68
2022/10/10 07:14:13;;;;;;;20.15;6.13;;;11.60;99.90;;;;;;5065054;28;20051;-68
2022/10/10 07:16:39;;;;;;;17.05;6.90;;;11.60;99.90;;;;;;5071968;28;20024;-68
2022/10/10 07:19:05;;;;;;;14.80;5.85;;;11.60;99.90;;;;;;5045379;28;20028;-68
2022/10/10 07:21:31;;;;;;;14.63;6.60;;;11.80;99.90;;;;;;5053380;28;20376;-68
2022/10/10 07:23:57;;;;;;;24.60;6.97;;;11.60;99.90;;;;;;5072040;28;20028;-68
2022/10/10 07:26:26;;;;;;;23.95;7.00;;;11.50;99.90;;;;;;5071977;28;20039;-68
2022/10/10 07:28:52;;;;;;;20.83;6.80;;;11.60;99.90;;;;;;5069299;28;20025;-67
2022/10/10 07:31:18;;;;;;;32.55;7.72;;;11.60;99.90;;;;;;5071612;28;20032;-67
2022/10/10 07:33:46;;;;;;;20.10;7.70;;;11.70;99.90;;;;;;5070113;28;20040;-67
2022/10/10 07:36:12;;;;;;;16.75;6.55;;;11.70;99.90;;;;;;5072001;28;20024;-68
2022/10/10 07:38:38;;;;;;;20.17;6.38;;;12.00;99.90;;;;;;5068926;28;20036;-69
2022/10/10 07:41:10;;;;;;;15.48;6.32;;;12.20;99.90;;;;;;5069343;28;20013;-69
2022/10/10 07:43:36;;;;;;;15.40;7.03;;;12.10;99.90;;;;;;5070356;28;20072;-68
2022/10/10 07:46:03;;;;;;;14.98;6.32;;;12.30;99.90;;;;;;5071990;28;20009;-68
2022/10/10 07:48:29;;;;;;;23.67;6.85;;;12.50;99.90;;;;;;5071395;28;20036;-68
2022/10/10 07:50:55;;;;;;;21.30;6.20;;;12.50;99.90;;;;;;5071621;28;20385;-68
2022/10/10 07:53:21;;;;;;;15.43;6.50;;;12.70;99.90;;;;;;5071626;28;20037;-67
2022/10/10 07:55:47;;;;;;;16.20;6.35;;;12.70;99.90;;;;;;5047583;28;20044;-68
2022/10/10 07:58:13;;;;;;;12.45;5.68;;;12.80;99.90;;;;;;5071667;28;20146;-69
2022/10/10 08:00:40;;;;;;;15.02;6.32;;;12.90;99.90;;;;;;5071120;28;20028;-69
2022/10/10 08:03:07;;;;;;;18.48;6.43;;;12.60;99.90;;;;;;5068983;28;20013;-68
2022/10/10 08:05:33;;;;;;;17.27;6.50;;;12.50;99.90;;;;;;5071426;28;20390;-67
2022/10/10 08:07:59;;;;;;;21.33;6.50;;;12.40;99.90;;;;;;5068956;28;20112;-68
2022/10/10 08:10:27;;;;;;;12.32;5.90;;;12.70;99.90;;;;;;5066998;28;20049;-67
2022/10/10 08:12:53;;;;;;;12.07;5.72;;;13.10;99.90;;;;;;5069982;28;20017;-68
2022/10/10 08:15:19;;;;;;;13.50;6.22;;;13.10;99.90;;;;;;5067183;28;20086;-67
2022/10/10 08:17:44;;;;;;;22.25;5.75;;;13.20;99.90;;;;;;5062910;28;20028;-68
2022/10/10 08:20:10;;;;;;;11.05;5.40;;;13.40;99.90;;;;;;5071604;28;20033;-67
2022/10/10 08:22:36;;;;;;;19.27;6.10;;;13.40;99.90;;;;;;5071606;28;20046;-67
2022/10/10 08:25:02;;;;;;;18.13;5.90;;;13.60;99.90;;;;;;5071289;28;20035;-69
2022/10/10 08:27:28;;;;;;;9.68;5.20;;;13.90;99.90;;;;;;5067749;28;20504;-68
2022/10/10 08:29:54;;;;;;;18.15;6.53;;;14.10;99.90;;;;;;5068345;28;20032;-68
2022/10/10 08:32:19;;;;;;;15.65;5.60;;;14.20;99.90;;;;;;5062951;28;20071;-68
2022/10/10 08:34:45;;;;;;;20.00;5.90;;;14.00;99.90;;;;;;5072676;28;20043;-67
2022/10/10 08:37:11;;;;;;;19.13;5.88;;;14.00;99.90;;;;;;5071025;28;20131;-69
2022/10/10 08:39:36;;;;;;;20.85;6.07;;;14.00;99.90;;;;;;5068715;28;20461;-67
2022/10/10 08:42:03;;;;;;;13.13;5.70;;;13.70;99.90;;;;;;5072232;28;20158;-67
2022/10/10 08:44:52;;;;;;;20.48;6.05;;;13.80;99.90;;;;;;5073517;28;20021;-72
2022/10/10 08:47:34;;;;;;;22.85;6.05;;;14.20;99.90;;;;;;5070868;28;20416;-68
2022/10/10 08:50:29;;;;;;;19.27;5.78;;;14.40;99.90;;;;;;5074828;28;20111;-67
2022/10/10 08:52:57;;;;;;;11.55;5.72;;;14.30;99.90;;;;;;5062181;28;20079;-67
2022/10/10 08:55:42;;;;;;;12.00;4.90;;;14.20;99.90;;;;;;5042958;28;20383;-68
2022/10/10 08:58:22;;;;;;;21.85;6.47;;;14.30;99.90;;;;;;5063507;28;20037;-68
2022/10/10 09:01:17;;;;;;;17.55;6.10;;;14.70;99.90;;;;;;5065676;28;20064;-67
2022/10/10 09:03:50;;;;;;;22.63;7.03;;;14.70;99.90;;;;;;5063113;28;20655;-67
2022/10/10 09:06:19;;;;;;;12.85;5.25;;;14.50;99.90;;;;;;5068176;28;20494;-67
2022/10/10 09:09:03;;;;;;;24.15;6.55;;;14.40;99.90;;;;;;5050565;28;20374;-67
2022/10/10 09:11:43;;;;;;;16.05;5.45;;;14.90;99.90;;;;;;5067500;28;20488;-68
2022/10/10 09:14:33;;;;;;;13.50;5.53;;;15.10;99.90;;;;;;5071489;28;20032;-67
2022/10/10 09:16:59;;;;;;;14.82;5.50;;;15.00;99.90;;;;;;5067200;28;20021;-67
2022/10/10 09:19:38;;;;;;;15.05;5.57;;;15.20;99.90;;;;;;5068847;28;20036;-68
2022/10/10 09:22:12;;;;;;;16.63;5.85;;;15.10;99.90;;;;;;5069820;28;20021;-67
2022/10/10 09:24:47;;;;;;;17.85;5.35;;;15.00;99.90;;;;;;5073925;28;20482;-67
2022/10/10 09:27:21;;;;;;;18.80;5.22;;;15.20;99.90;;;;;;5050045;28;20047;-67
2022/10/10 09:30:05;;;;;;;16.10;5.93;;;15.80;99.90;;;;;;5066420;28;20392;-67
2022/10/10 09:32:46;;;;;;;13.15;5.25;;;16.00;99.90;;;;;;5074142;28;20174;-68
2022/10/10 09:35:29;;;;;;;17.58;5.03;;;16.30;99.90;;;;;;5074308;28;20048;-67
2022/10/10 09:38:22;;;;;;;17.83;6.20;;;16.10;99.90;;;;;;5072219;28;20111;-67
2022/10/10 09:40:57;;;;;;;14.35;5.10;;;15.90;99.90;;;;;;5071570;28;20487;-67
2022/10/10 09:43:28;;;;;;;18.40;5.45;;;16.10;99.90;;;;;;5064746;28;20025;-68
2022/10/10 09:45:57;;;;;;;17.87;5.00;;;16.20;99.90;;;;;;5073409;28;20028;-68
2022/10/10 09:48:40;;;;;;;19.05;4.97;;;16.50;99.90;;;;;;5074047;28;20032;-68
2022/10/10 09:51:15;;;;;;;16.08;4.80;;;16.80;99.90;;;;;;5073170;28;20095;-68
2022/10/10 09:53:43;;;;;;;12.75;5.15;;;17.30;99.90;;;;;;5073990;28;20485;-68
2022/10/10 09:56:31;;;;;;;23.02;4.85;;;17.40;99.90;;;;;;5073777;28;20033;-67
2022/10/10 09:58:57;;;;;;;12.48;4.72;;;18.00;99.90;;;;;;5065869;28;20029;-66
2022/10/10 10:01:34;;;;;;;13.90;4.57;;;17.70;99.90;;;;;;5074477;28;20104;-67
2022/10/10 10:04:18;;;;;;;16.02;4.82;;;17.30;99.90;;;;;;5074561;28;20362;-68
2022/10/10 10:06:50;;;;;;;16.05;4.25;;;17.30;99.90;;;;;;5073668;28;20020;-72
2022/10/10 10:09:21;;;;;;;17.30;4.28;;;17.20;99.90;;;;;;5056743;28;20044;-67
2022/10/10 10:11:54;;;;;;;17.83;4.57;;;17.20;99.90;;;;;;5074222;28;20453;-66
2022/10/10 10:14:24;;;;;;;13.32;4.63;;;17.50;99.90;;;;;;5073284;28;20084;-66
2022/10/10 10:16:52;;;;;;;20.63;4.95;;;17.30;99.90;;;;;;5074209;28;20077;-68
2022/10/10 10:19:42;;;;;;;25.27;4.80;;;17.50;99.90;;;;;;5071943;28;20025;-66
2022/10/10 10:22:31;;;;;;;15.38;4.45;;;17.70;99.90;;;;;;5073960;28;20036;-67
2022/10/10 10:24:59;;;;;;;14.18;4.45;;;17.80;99.90;;;;;;5073917;28;20021;-68
2022/10/10 10:27:27;;;;;;;9.45;4.30;;;17.70;99.90;;;;;;5062103;28;20374;-66
2022/10/10 10:29:55;;;;;;;13.18;5.45;;;17.90;99.90;;;;;;5066779;28;20419;-68
2022/10/10 10:32:51;;;;;;;16.08;4.55;;;17.70;99.90;;;;;;5072413;28;20493;-68
2022/10/10 10:35:38;;;;;;;15.45;4.65;;;17.80;99.90;;;;;;5073771;28;20119;-70
2022/10/10 10:38:23;;;;;;;13.82;4.22;;;18.30;99.90;;;;;;5065818;28;20033;-71
2022/10/10 10:41:12;;;;;;;20.40;4.95;;;18.60;99.90;;;;;;5071342;28;20036;-69
2022/10/10 10:43:51;;;;;;;19.33;7.05;;;18.80;99.90;;;;;;5073248;28;20429;-71
2022/10/10 10:46:22;;;;;;;13.55;5.35;;;18.20;99.90;;;;;;5063106;28;20052;-67
2022/10/10 10:49:14;;;;;;;18.55;5.18;;;17.70;99.90;;;;;;5073564;28;20101;-71
2022/10/10 10:52:14;;;;;;;12.18;5.13;;;18.20;99.90;;;;;;5065581;28;20485;-68
2022/10/10 10:55:07;;;;;;;12.20;5.18;;;18.50;99.90;;;;;;5072708;28;20031;-68
2022/10/10 10:57:56;;;;;;;22.50;5.38;;;19.50;99.90;;;;;;5072929;28;20036;-68
2022/10/10 11:00:22;;;;;;;16.90;5.35;;;20.40;99.90;;;;;;5073458;28;20526;-71
2022/10/10 11:02:47;;;;;;;22.80;4.80;;;20.40;99.90;;;;;;5073286;28;20082;-71
2022/10/10 11:05:33;;;;;;;12.60;4.68;;;19.60;99.90;;;;;;5073200;28;20396;-71
2022/10/10 11:08:08;;;;;;;18.40;5.07;;;20.20;99.90;;;;;;5073374;28;20111;-71
2022/10/10 11:10:47;;;;;;;14.02;4.20;;;20.80;99.90;;;;;;5073428;28;20024;-72
2022/10/10 11:13:22;;;;;;;14.20;4.35;;;22.10;99.90;;;;;;5072851;28;20051;-71
2022/10/10 11:16:14;;;;;;;11.68;4.63;;;21.50;99.90;;;;;;5073225;28;20055;-71
2022/10/10 11:19:03;;;;;;;15.35;4.22;;;21.30;99.90;;;;;;5037049;28;20041;-71
2022/10/10 11:21:31;;;;;;;34.95;16.45;;;21.50;99.90;;;;;;5073221;28;20032;-71
2022/10/10 11:24:28;;;;;;;11.10;4.55;;;21.90;99.90;;;;;;5072441;28;20082;-71
2022/10/10 11:26:59;;;;;;;15.20;5.15;;;21.80;99.90;;;;;;5041320;28;20447;-71
2022/10/10 11:29:45;;;;;;;16.65;4.40;;;21.60;99.90;;;;;;5073127;28;20024;-72
2022/10/10 11:32:18;;;;;;;15.05;5.60;;;21.90;99.90;;;;;;5072904;28;20111;-71
2022/10/10 11:35:02;;;;;;;17.80;5.47;;;21.20;99.90;;;;;;5072869;28;20489;-71
2022/10/10 11:37:31;;;;;;;16.15;5.13;;;21.30;99.90;;;;;;5072907;28;20020;-72
2022/10/10 11:40:03;;;;;;;15.07;5.60;;;20.80;99.90;;;;;;5072991;28;20533;-71
2022/10/10 11:42:37;;;;;;;17.45;5.65;;;20.50;99.90;;;;;;5072591;28;20051;-72
2022/10/10 11:45:14;;;;;;;17.55;5.68;;;20.40;99.90;;;;;;5054960;28;20120;-71
2022/10/10 11:47:54;;;;;;;21.15;5.65;;;20.60;99.90;;;;;;5072777;28;20540;-71
2022/10/10 11:50:29;;;;;;;18.08;6.47;;;21.20;99.90;;;;;;5072788;28;20450;-71
2022/10/10 11:53:06;;;;;;;19.63;5.10;;;21.20;99.90;;;;;;5072597;28;20477;-67
2022/10/10 11:55:51;;;;;;;21.13;5.88;;;21.30;99.90;;;;;;5072248;28;20119;-68
2022/10/10 11:58:22;;;;;;;21.23;6.43;;;20.80;99.90;;;;;;5059817;28;20492;-67
2022/10/10 12:00:56;;;;;;;32.60;7.20;;;20.00;99.90;;;;;;5072738;28;20039;-68
2022/10/10 12:03:26;;;;;;;20.90;5.10;;;19.40;99.90;;;;;;5063493;28;20029;-66
2022/10/10 12:05:58;;;;;;;14.23;5.55;;;19.10;99.90;;;;;;5072699;28;20029;-67
2022/10/10 12:08:33;;;;;;;15.60;5.95;;;19.00;99.90;;;;;;5072606;28;20504;-66
2022/10/10 12:11:18;;;;;;;15.73;6.25;;;18.80;99.90;;;;;;5072398;28;20031;-66
2022/10/10 12:13:48;;;;;;;12.93;4.88;;;18.90;99.90;;;;;;5071999;28;20028;-66
2022/10/10 12:16:18;;;;;;;15.38;5.53;;;18.50;99.90;;;;;;5072542;28;20431;-66
2022/10/10 12:18:53;;;;;;;23.92;5.65;;;18.20;99.90;;;;;;5072331;28;20024;-66
2022/10/10 12:21:23;;;;;;;13.82;5.18;;;18.40;99.90;;;;;;5072495;28;20041;-67
2022/10/10 12:23:58;;;;;;;19.25;5.85;;;18.40;99.90;;;;;;5054181;28;20064;-67
2022/10/10 12:26:25;;;;;;;17.10;5.55;;;18.30;99.90;;;;;;5072106;28;20115;-67
2022/10/10 12:29:05;;;;;;;13.88;5.97;;;18.00;99.90;;;;;;5072324;28;20047;-68
2022/10/10 12:31:38;;;;;;;16.23;5.85;;;17.80;99.90;;;;;;5054487;28;20115;-67
2022/10/10 12:34:36;;;;;;;13.20;4.97;;;18.00;99.90;;;;;;5072145;28;20028;-67
2022/10/10 12:37:24;;;;;;;15.65;5.45;;;17.80;99.90;;;;;;5074781;28;20036;-67
2022/10/10 12:40:05;;;;;;;26.08;6.97;;;17.50;99.90;;;;;;5076015;28;20056;-68
2022/10/10 12:42:45;;;;;;;16.53;6.63;;;17.40;99.90;;;;;;5076165;28;20107;-67
2022/10/10 12:45:37;;;;;;;16.92;5.88;;;17.00;99.90;;;;;;5075998;28;20089;-67
2022/10/10 12:48:04;;;;;;;15.20;5.78;;;16.80;99.90;;;;;;5028204;28;20090;-68
2022/10/10 12:50:39;;;;;;;18.33;6.28;;;17.10;99.90;;;;;;5075774;28;20419;-67
2022/10/10 12:53:11;;;;;;;19.42;6.18;;;17.30;99.90;;;;;;5075699;28;20041;-67
2022/10/10 12:55:46;;;;;;;;;;;17.30;99.90;;;;;;5058047;28;20042;-68
2022/10/10 12:58:25;;;;;;;17.35;7.00;;;17.50;99.90;;;;;;5062348;28;19916;-67
2022/10/10 13:00:52;;;;;;;20.80;6.72;;;17.50;99.90;;;;;;5075491;28;20469;-68